Andersonville, Georgia
Current Conditions -  °F | °C
As of 8:15 PM on Friday 24 Oct 2014 (Local Time) from KACJ Reporting Station
Clear Clear  
Wind Chill: 61°   Ceiling: Unl
Heat Index: 61°   Visibility: 10mi
Dew Point: 52°   Wind: 3mph
Humidity: 72%   Direction: 260°W
Pressure: 30.03"   Gusts: NA
Location:  32.2°N, 84.14°W
Report Text: KACJ 250015Z AUTO 26003KT 10SM CLR 16/11 A3003 RMK AO2
Loading
Personal Weather Stations






























Interactive Weather Map
Tropical Storm Tracking
New forecast layout! Learn more

10-Day Weather Forecast

Advertisements
Track Severe Weather on mobile